sensor_id;sensor_type;location;lat;lon;timestamp;pressure;altitude;pressure_sealevel;temperature;humidity
35878;BME280;21982;49.804;24.072;2023-11-21T00:02:21;96443.66;;;6.60;75.18
35878;BME280;21982;49.804;24.072;2023-11-21T00:04:48;96420.66;;;6.48;74.87
35878;BME280;21982;49.804;24.072;2023-11-21T00:07:13;96453.59;;;6.58;74.75
35878;BME280;21982;49.804;24.072;2023-11-21T00:09:40;96357.44;;;6.05;75.32
35878;BME280;21982;49.804;24.072;2023-11-21T00:12:05;96413.31;;;6.43;75.23
35878;BME280;21982;49.804;24.072;2023-11-21T00:14:31;96451.38;;;6.62;75.67
35878;BME280;21982;49.804;24.072;2023-11-21T00:16:56;96388.31;;;6.32;75.01
35878;BME280;21982;49.804;24.072;2023-11-21T00:19:21;96464.34;;;6.63;74.53
35878;BME280;21982;49.804;24.072;2023-11-21T00:21:47;96385.69;;;6.32;75.30
35878;BME280;21982;49.804;24.072;2023-11-21T00:24:12;96443.28;;;6.63;74.58
35878;BME280;21982;49.804;24.072;2023-11-21T00:26:39;96438.66;;;6.65;74.63
35878;BME280;21982;49.804;24.072;2023-11-21T00:29:05;96440.47;;;6.65;74.80
35878;BME280;21982;49.804;24.072;2023-11-21T00:31:34;96437.03;;;6.64;75.50
35878;BME280;21982;49.804;24.072;2023-11-21T00:34:02;96293.56;;;5.75;74.92
35878;BME280;21982;49.804;24.072;2023-11-21T00:36:31;96429.91;;;6.58;74.88
35878;BME280;21982;49.804;24.072;2023-11-21T00:38:57;96079.88;;;4.45;74.92
35878;BME280;21982;49.804;24.072;2023-11-21T00:41:22;96235.72;;;5.24;74.47
35878;BME280;21982;49.804;24.072;2023-11-21T00:43:47;96442.19;;;6.72;75.05
35878;BME280;21982;49.804;24.072;2023-11-21T00:46:13;96347.75;;;6.05;74.45
35878;BME280;21982;49.804;24.072;2023-11-21T00:48:39;96376.09;;;6.10;74.56
35878;BME280;21982;49.804;24.072;2023-11-21T00:51:04;96391.28;;;6.44;74.77
35878;BME280;21982;49.804;24.072;2023-11-21T00:53:31;96390.91;;;6.47;74.30
35878;BME280;21982;49.804;24.072;2023-11-21T00:55:57;96328.91;;;6.02;74.48
35878;BME280;21982;49.804;24.072;2023-11-21T00:58:26;96411.03;;;6.55;74.61
35878;BME280;21982;49.804;24.072;2023-11-21T01:00:52;96446.28;;;6.75;74.96
35878;BME280;21982;49.804;24.072;2023-11-21T01:03:18;96354.44;;;6.23;74.42
35878;BME280;21982;49.804;24.072;2023-11-21T01:05:44;96329.06;;;6.00;74.68
35878;BME280;21982;49.804;24.072;2023-11-21T01:08:09;96221.16;;;5.36;74.76
35878;BME280;21982;49.804;24.072;2023-11-21T01:10:35;96450.19;;;6.79;74.96
35878;BME280;21982;49.804;24.072;2023-11-21T01:13:01;96258.97;;;5.71;74.67
35878;BME280;21982;49.804;24.072;2023-11-21T01:15:27;96443.09;;;6.80;74.77
35878;BME280;21982;49.804;24.072;2023-11-21T01:17:52;96457.25;;;6.79;74.65
35878;BME280;21982;49.804;24.072;2023-11-21T01:20:18;96466.78;;;6.80;74.48
35878;BME280;21982;49.804;24.072;2023-11-21T01:22:43;96430.16;;;6.63;74.66
35878;BME280;21982;49.804;24.072;2023-11-21T01:25:09;96411.91;;;6.62;74.57
35878;BME280;21982;49.804;24.072;2023-11-21T01:27:36;96418.56;;;6.58;75.13
35878;BME280;21982;49.804;24.072;2023-11-21T01:30:03;96416.75;;;6.58;75.06
35878;BME280;21982;49.804;24.072;2023-11-21T01:32:28;96393.28;;;6.42;74.65
35878;BME280;21982;49.804;24.072;2023-11-21T01:34:54;96428.69;;;6.61;74.85
35878;BME280;21982;49.804;24.072;2023-11-21T01:37:20;96273.28;;;5.69;74.64
35878;BME280;21982;49.804;24.072;2023-11-21T01:39:47;96379.50;;;6.40;74.63
35878;BME280;21982;49.804;24.072;2023-11-21T01:42:12;96302.53;;;5.95;75.08
35878;BME280;21982;49.804;24.072;2023-11-21T01:44:38;96429.31;;;6.78;75.26
35878;BME280;21982;49.804;24.072;2023-11-21T01:47:05;96429.75;;;6.81;75.01
35878;BME280;21982;49.804;24.072;2023-11-21T01:49:35;96252.34;;;5.61;74.27
35878;BME280;21982;49.804;24.072;2023-11-21T01:52:01;96428.19;;;6.87;75.19
35878;BME280;21982;49.804;24.072;2023-11-21T01:54:28;96224.09;;;5.63;74.39
35878;BME280;21982;49.804;24.072;2023-11-21T01:56:58;96438.78;;;6.93;74.79
35878;BME280;21982;49.804;24.072;2023-11-21T01:59:37;96398.72;;;6.77;74.53
35878;BME280;21982;49.804;24.072;2023-11-21T02:02:04;96457.78;;;6.89;74.92
35878;BME280;21982;49.804;24.072;2023-11-21T02:04:31;96328.16;;;6.23;75.22
35878;BME280;21982;49.804;24.072;2023-11-21T02:06:57;96357.03;;;6.37;74.58
35878;BME280;21982;49.804;24.072;2023-11-21T02:09:25;96387.06;;;6.64;75.15
35878;BME280;21982;49.804;24.072;2023-11-21T02:11:51;96390.69;;;6.63;75.09
35878;BME280;21982;49.804;24.072;2023-11-21T02:14:16;96435.09;;;6.88;74.55
35878;BME280;21982;49.804;24.072;2023-11-21T02:16:45;96443.63;;;6.90;74.76
35878;BME280;21982;49.804;24.072;2023-11-21T02:19:18;96439.84;;;6.99;75.12
35878;BME280;21982;49.804;24.072;2023-11-21T02:21:45;96431.13;;;6.98;74.65
35878;BME280;21982;49.804;24.072;2023-11-21T02:24:11;96437.84;;;7.01;74.96
35878;BME280;21982;49.804;24.072;2023-11-21T02:26:36;96422.19;;;6.93;75.01
35878;BME280;21982;49.804;24.072;2023-11-21T02:29:01;96329.53;;;6.40;74.91
35878;BME280;21982;49.804;24.072;2023-11-21T02:31:29;96441.38;;;7.08;74.65
35878;BME280;21982;49.804;24.072;2023-11-21T02:33:55;96437.19;;;7.14;74.94
35878;BME280;21982;49.804;24.072;2023-11-21T02:36:20;96425.66;;;7.15;74.80
35878;BME280;21982;49.804;24.072;2023-11-21T02:38:47;96374.25;;;6.76;74.74
35878;BME280;21982;49.804;24.072;2023-11-21T02:41:12;96437.88;;;7.22;74.35
35878;BME280;21982;49.804;24.072;2023-11-21T02:43:38;96339.25;;;6.61;74.86
35878;BME280;21982;49.804;24.072;2023-11-21T02:46:04;96367.16;;;6.77;74.16
35878;BME280;21982;49.804;24.072;2023-11-21T02:48:29;96322.53;;;6.47;74.86
35878;BME280;21982;49.804;24.072;2023-11-21T02:50:56;96440.69;;;7.21;74.52
35878;BME280;21982;49.804;24.072;2023-11-21T02:53:21;96449.78;;;7.18;74.09
35878;BME280;21982;49.804;24.072;2023-11-21T02:55:46;96457.13;;;7.23;74.39
35878;BME280;21982;49.804;24.072;2023-11-21T02:58:12;96476.38;;;7.23;74.19
35878;BME280;21982;49.804;24.072;2023-11-21T03:00:37;96429.59;;;6.68;74.45
35878;BME280;21982;49.804;24.072;2023-11-21T03:03:05;96322.84;;;6.37;74.47
35878;BME280;21982;49.804;24.072;2023-11-21T03:05:30;96283.94;;;6.12;74.36
35878;BME280;21982;49.804;24.072;2023-11-21T03:07:56;96402.75;;;6.94;74.78
35878;BME280;21982;49.804;24.072;2023-11-21T03:10:21;96351.38;;;6.55;74.32
35878;BME280;21982;49.804;24.072;2023-11-21T03:12:47;96466.31;;;7.33;74.10
35878;BME280;21982;49.804;24.072;2023-11-21T03:15:12;96413.16;;;7.02;74.30
35878;BME280;21982;49.804;24.072;2023-11-21T03:17:38;96442.59;;;7.27;74.65
35878;BME280;21982;49.804;24.072;2023-11-21T03:20:04;96459.94;;;7.43;74.29
35878;BME280;21982;49.804;24.072;2023-11-21T03:22:29;96471.28;;;7.43;74.31
35878;BME280;21982;49.804;24.072;2023-11-21T03:24:55;96361.44;;;6.73;74.25
35878;BME280;21982;49.804;24.072;2023-11-21T03:27:20;96253.84;;;6.14;74.29
35878;BME280;21982;49.804;24.072;2023-11-21T03:29:46;96464.97;;;7.59;74.74
35878;BME280;21982;49.804;24.072;2023-11-21T03:32:12;96433.97;;;7.39;74.24
35878;BME280;21982;49.804;24.072;2023-11-21T03:34:53;96473.38;;;7.76;72.89
35878;BME280;21982;49.804;24.072;2023-11-21T03:37:19;96465.88;;;7.72;73.84
35878;BME280;21982;49.804;24.072;2023-11-21T03:39:46;96470.94;;;7.74;73.83
35878;BME280;21982;49.804;24.072;2023-11-21T03:42:12;96392.13;;;7.23;73.86
35878;BME280;21982;49.804;24.072;2023-11-21T03:44:37;96286.84;;;6.59;73.01
35878;BME280;21982;49.804;24.072;2023-11-21T03:47:03;96455.75;;;7.76;73.72
35878;BME280;21982;49.804;24.072;2023-11-21T03:49:29;96455.56;;;7.78;73.61
35878;BME280;21982;49.804;24.072;2023-11-21T03:51:55;96380.59;;;7.24;73.45
35878;BME280;21982;49.804;24.072;2023-11-21T03:54:20;96418.59;;;7.43;73.71
35878;BME280;21982;49.804;24.072;2023-11-21T03:56:46;96332.59;;;6.80;73.39
35878;BME280;21982;49.804;24.072;2023-11-21T03:59:11;96464.16;;;7.65;73.56
35878;BME280;21982;49.804;24.072;2023-11-21T04:01:37;96451.63;;;7.67;73.49
35878;BME280;21982;49.804;24.072;2023-11-21T04:04:03;96453.69;;;7.71;73.91
35878;BME280;21982;49.804;24.072;2023-11-21T04:06:29;96457.75;;;7.74;73.21
35878;BME280;21982;49.804;24.072;2023-11-21T04:08:54;96463.03;;;7.74;73.57
35878;BME280;21982;49.804;24.072;2023-11-21T04:11:20;96463.03;;;7.74;73.14
35878;BME280;21982;49.804;24.072;2023-11-21T04:13:45;96342.66;;;6.97;72.78
35878;BME280;21982;49.804;24.072;2023-11-21T04:16:12;96438.41;;;7.60;73.15
35878;BME280;21982;49.804;24.072;2023-11-21T04:18:38;96322.75;;;6.88;72.95
35878;BME280;21982;49.804;24.072;2023-11-21T04:21:07;96465.91;;;7.79;73.32
35878;BME280;21982;49.804;24.072;2023-11-21T04:23:33;96387.47;;;7.25;73.13
35878;BME280;21982;49.804;24.072;2023-11-21T04:25:59;96470.56;;;7.77;73.53
35878;BME280;21982;49.804;24.072;2023-11-21T04:28:25;96482.56;;;7.80;73.37
35878;BME280;21982;49.804;24.072;2023-11-21T04:30:51;96398.75;;;7.19;73.54
35878;BME280;21982;49.804;24.072;2023-11-21T04:33:16;96481.47;;;7.74;73.16
35878;BME280;21982;49.804;24.072;2023-11-21T04:35:42;96379.81;;;7.09;73.08
35878;BME280;21982;49.804;24.072;2023-11-21T04:38:07;96469.44;;;7.65;73.13
35878;BME280;21982;49.804;24.072;2023-11-21T04:40:33;96410.28;;;7.18;73.04
35878;BME280;21982;49.804;24.072;2023-11-21T04:42:58;96410.34;;;7.25;72.68
35878;BME280;21982;49.804;24.072;2023-11-21T04:45:28;96476.34;;;7.66;73.37
35878;BME280;21982;49.804;24.072;2023-11-21T04:47:54;96475.50;;;7.59;73.81
35878;BME280;21982;49.804;24.072;2023-11-21T04:50:19;96448.59;;;7.42;73.34
35878;BME280;21982;49.804;24.072;2023-11-21T04:52:45;96441.13;;;7.46;73.39
35878;BME280;21982;49.804;24.072;2023-11-21T04:55:10;96475.59;;;7.72;73.50
35878;BME280;21982;49.804;24.072;2023-11-21T04:57:36;96468.13;;;7.76;73.10
35878;BME280;21982;49.804;24.072;2023-11-21T05:00:03;96343.00;;;6.88;73.29
35878;BME280;21982;49.804;24.072;2023-11-21T05:02:31;96468.22;;;7.61;73.50
35878;BME280;21982;49.804;24.072;2023-11-21T05:04:57;96311.03;;;6.69;72.84
35878;BME280;21982;49.804;24.072;2023-11-21T05:07:22;96406.38;;;7.35;73.14
35878;BME280;21982;49.804;24.072;2023-11-21T05:09:47;96448.66;;;7.49;73.12
35878;BME280;21982;49.804;24.072;2023-11-21T05:12:13;96263.09;;;6.31;73.33
35878;BME280;21982;49.804;24.072;2023-11-21T05:14:39;96275.06;;;6.34;73.65
35878;BME280;21982;49.804;24.072;2023-11-21T05:17:05;96320.03;;;6.60;73.03
35878;BME280;21982;49.804;24.072;2023-11-21T05:19:30;96490.16;;;7.68;73.57
35878;BME280;21982;49.804;24.072;2023-11-21T05:21:56;96513.47;;;7.71;73.74
35878;BME280;21982;49.804;24.072;2023-11-21T05:24:26;96501.19;;;7.78;73.97
35878;BME280;21982;49.804;24.072;2023-11-21T05:26:53;96506.59;;;7.70;74.02
35878;BME280;21982;49.804;24.072;2023-11-21T05:29:18;96502.31;;;7.69;73.85
35878;BME280;21982;49.804;24.072;2023-11-21T05:31:43;96452.09;;;7.28;73.79
35878;BME280;21982;49.804;24.072;2023-11-21T05:34:09;96517.06;;;7.63;74.12
35878;BME280;21982;49.804;24.072;2023-11-21T05:36:34;96512.00;;;7.62;73.84
35878;BME280;21982;49.804;24.072;2023-11-21T05:39:00;96490.03;;;7.33;74.09
35878;BME280;21982;49.804;24.072;2023-11-21T05:41:25;96428.88;;;6.95;74.30
35878;BME280;21982;49.804;24.072;2023-11-21T05:43:51;96517.56;;;7.52;74.31
35878;BME280;21982;49.804;24.072;2023-11-21T05:46:16;96354.47;;;6.44;74.25
35878;BME280;21982;49.804;24.072;2023-11-21T05:48:41;96329.03;;;6.30;74.28
35878;BME280;21982;49.804;24.072;2023-11-21T05:51:07;96528.94;;;7.53;74.35
35878;BME280;21982;49.804;24.072;2023-11-21T05:53:35;96477.41;;;7.29;74.48
35878;BME280;21982;49.804;24.072;2023-11-21T05:56:00;96458.91;;;7.01;75.07
35878;BME280;21982;49.804;24.072;2023-11-21T05:58:26;96360.69;;;6.22;74.35
35878;BME280;21982;49.804;24.072;2023-11-21T06:00:51;96533.00;;;7.55;74.38
35878;BME280;21982;49.804;24.072;2023-11-21T06:03:16;96535.84;;;7.54;74.50
35878;BME280;21982;49.804;24.072;2023-11-21T06:05:42;96541.09;;;7.54;74.13
35878;BME280;21982;49.804;24.072;2023-11-21T06:08:07;96515.06;;;7.44;74.51
35878;BME280;21982;49.804;24.072;2023-11-21T06:10:33;96485.75;;;7.32;74.53
35878;BME280;21982;49.804;24.072;2023-11-21T06:12:59;96539.75;;;7.64;74.94
35878;BME280;21982;49.804;24.072;2023-11-21T06:15:24;96435.09;;;7.09;74.54
35878;BME280;21982;49.804;24.072;2023-11-21T06:17:52;96495.25;;;7.48;73.98
35878;BME280;21982;49.804;24.072;2023-11-21T06:20:18;96534.44;;;7.79;74.87
35878;BME280;21982;49.804;24.072;2023-11-21T06:22:46;96363.28;;;6.72;74.06
35878;BME280;21982;49.804;24.072;2023-11-21T06:25:14;96451.31;;;7.27;74.58
35878;BME280;21982;49.804;24.072;2023-11-21T06:27:41;96539.41;;;7.89;74.72
35878;BME280;21982;49.804;24.072;2023-11-21T06:30:08;96538.59;;;7.88;75.09
35878;BME280;21982;49.804;24.072;2023-11-21T06:32:36;96529.47;;;7.91;74.90
35878;BME280;21982;49.804;24.072;2023-11-21T06:35:05;96447.78;;;7.42;74.33
35878;BME280;21982;49.804;24.072;2023-11-21T06:37:32;96538.59;;;7.88;74.84
35878;BME280;21982;49.804;24.072;2023-11-21T06:39:59;96537.84;;;7.94;75.02
35878;BME280;21982;49.804;24.072;2023-11-21T06:42:26;96541.47;;;7.93;74.39
35878;BME280;21982;49.804;24.072;2023-11-21T06:44:52;96518.50;;;7.66;74.94
35878;BME280;21982;49.804;24.072;2023-11-21T06:47:19;96474.25;;;7.55;74.63
35878;BME280;21982;49.804;24.072;2023-11-21T06:49:50;96541.09;;;7.96;74.70
35878;BME280;21982;49.804;24.072;2023-11-21T06:52:16;96497.28;;;7.74;75.19
35878;BME280;21982;49.804;24.072;2023-11-21T06:54:41;96547.22;;;8.03;74.97
35878;BME280;21982;49.804;24.072;2023-11-21T06:57:07;96500.88;;;7.66;75.10
35878;BME280;21982;49.804;24.072;2023-11-21T06:59:37;96505.19;;;7.74;74.63
35878;BME280;21982;49.804;24.072;2023-11-21T07:04:39;96481.13;;;7.56;74.82
35878;BME280;21982;49.804;24.072;2023-11-21T07:07:34;96469.34;;;7.52;74.24
35878;BME280;21982;49.804;24.072;2023-11-21T07:10:21;96526.03;;;7.90;74.51
35878;BME280;21982;49.804;24.072;2023-11-21T07:12:46;96438.50;;;7.46;74.38
35878;BME280;21982;49.804;24.072;2023-11-21T07:15:11;96573.50;;;8.18;74.84
35878;BME280;21982;49.804;24.072;2023-11-21T07:17:37;96553.28;;;8.25;74.49
35878;BME280;21982;49.804;24.072;2023-11-21T07:20:03;96488.00;;;7.78;74.87
35878;BME280;21982;49.804;24.072;2023-11-21T07:22:29;96421.06;;;7.45;74.81
35878;BME280;21982;49.804;24.072;2023-11-21T07:24:55;96554.72;;;8.28;74.98
35878;BME280;21982;49.804;24.072;2023-11-21T07:27:21;96553.31;;;8.32;75.09
35878;BME280;21982;49.804;24.072;2023-11-21T07:29:47;96380.31;;;6.98;75.12
35878;BME280;21982;49.804;24.072;2023-11-21T07:32:13;96552.72;;;8.30;74.66
35878;BME280;21982;49.804;24.072;2023-11-21T07:34:40;96505.00;;;7.97;74.26
35878;BME280;21982;49.804;24.072;2023-11-21T07:37:07;96556.59;;;8.34;74.96
35878;BME280;21982;49.804;24.072;2023-11-21T07:39:34;96489.75;;;7.92;74.40
35878;BME280;21982;49.804;24.072;2023-11-21T07:41:59;96553.41;;;8.38;75.02
35878;BME280;21982;49.804;24.072;2023-11-21T07:44:26;96464.09;;;7.80;75.34
35878;BME280;21982;49.804;24.072;2023-11-21T07:46:52;96332.72;;;6.93;74.99
35878;BME280;21982;49.804;24.072;2023-11-21T07:49:17;96558.84;;;8.37;74.81
35878;BME280;21982;49.804;24.072;2023-11-21T07:51:45;96542.16;;;8.30;75.15
35878;BME280;21982;49.804;24.072;2023-11-21T07:54:12;96434.91;;;7.53;74.98
35878;BME280;21982;49.804;24.072;2023-11-21T07:56:38;96561.59;;;8.50;75.03
35878;BME280;21982;49.804;24.072;2023-11-21T07:59:04;96554.75;;;8.56;74.91
35878;BME280;21982;49.804;24.072;2023-11-21T08:01:30;96461.22;;;8.02;74.42
35878;BME280;21982;49.804;24.072;2023-11-21T08:03:55;96405.56;;;7.63;74.42
35878;BME280;21982;49.804;24.072;2023-11-21T08:06:24;96477.66;;;8.04;74.89
35878;BME280;21982;49.804;24.072;2023-11-21T08:08:50;96555.00;;;8.67;74.53
35878;BME280;21982;49.804;24.072;2023-11-21T08:11:16;96555.41;;;8.71;74.79
35878;BME280;21982;49.804;24.072;2023-11-21T08:13:41;96556.72;;;8.82;74.83
35878;BME280;21982;49.804;24.072;2023-11-21T08:16:07;96556.97;;;8.93;75.00
35878;BME280;21982;49.804;24.072;2023-11-21T08:18:32;96435.31;;;8.13;74.31
35878;BME280;21982;49.804;24.072;2023-11-21T08:21:00;96526.97;;;8.66;74.17
35878;BME280;21982;49.804;24.072;2023-11-21T08:23:26;96520.88;;;8.59;74.44
35878;BME280;21982;49.804;24.072;2023-11-21T08:25:52;96560.66;;;8.99;74.58
35878;BME280;21982;49.804;24.072;2023-11-21T08:28:18;96561.69;;;8.98;74.44
35878;BME280;21982;49.804;24.072;2023-11-21T08:30:44;96505.22;;;8.58;74.36
35878;BME280;21982;49.804;24.072;2023-11-21T08:33:10;96487.09;;;8.48;74.66
35878;BME280;21982;49.804;24.072;2023-11-21T08:35:36;96570.00;;;9.01;74.19
35878;BME280;21982;49.804;24.072;2023-11-21T08:38:02;96518.03;;;8.67;74.08
35878;BME280;21982;49.804;24.072;2023-11-21T08:40:28;96573.91;;;9.12;74.73
35878;BME280;21982;49.804;24.072;2023-11-21T08:42:54;96513.66;;;8.81;74.12
35878;BME280;21982;49.804;24.072;2023-11-21T08:45:21;96427.31;;;8.27;73.97
35878;BME280;21982;49.804;24.072;2023-11-21T08:47:47;96575.78;;;9.18;74.40
35878;BME280;21982;49.804;24.072;2023-11-21T08:50:12;96558.03;;;8.99;74.37
35878;BME280;21982;49.804;24.072;2023-11-21T08:52:39;96573.69;;;9.07;74.31
35878;BME280;21982;49.804;24.072;2023-11-21T08:55:06;96576.31;;;9.07;74.50
35878;BME280;21982;49.804;24.072;2023-11-21T08:57:40;96577.09;;;9.01;73.97
35878;BME280;21982;49.804;24.072;2023-11-21T09:00:07;96552.44;;;8.81;74.71
35878;BME280;21982;49.804;24.072;2023-11-21T09:02:37;96569.56;;;8.91;74.64
35878;BME280;21982;49.804;24.072;2023-11-21T09:05:07;96579.56;;;9.02;74.95
35878;BME280;21982;49.804;24.072;2023-11-21T09:07:34;96600.69;;;9.02;74.63
35878;BME280;21982;49.804;24.072;2023-11-21T09:09:59;96546.38;;;8.87;74.40
35878;BME280;21982;49.804;24.072;2023-11-21T09:12:24;96574.69;;;9.06;74.51
35878;BME280;21982;49.804;24.072;2023-11-21T09:14:50;96571.44;;;9.04;73.99
35878;BME280;21982;49.804;24.072;2023-11-21T09:17:16;96570.63;;;8.97;74.50
35878;BME280;21982;49.804;24.072;2023-11-21T09:19:41;96513.53;;;8.55;74.51
35878;BME280;21982;49.804;24.072;2023-11-21T09:22:08;96561.22;;;8.88;74.47
35878;BME280;21982;49.804;24.072;2023-11-21T09:24:34;96549.81;;;8.81;75.04
35878;BME280;21982;49.804;24.072;2023-11-21T09:27:00;96567.78;;;8.98;74.46
35878;BME280;21982;49.804;24.072;2023-11-21T09:29:28;96484.34;;;8.63;74.54
35878;BME280;21982;49.804;24.072;2023-11-21T09:31:54;96562.72;;;9.10;74.90
35878;BME280;21982;49.804;24.072;2023-11-21T09:34:20;96556.81;;;9.08;74.66
35878;BME280;21982;49.804;24.072;2023-11-21T09:36:47;96554.19;;;9.08;74.95
35878;BME280;21982;49.804;24.072;2023-11-21T09:39:13;96413.06;;;8.22;74.58
35878;BME280;21982;49.804;24.072;2023-11-21T09:41:51;96473.84;;;8.76;74.66
35878;BME280;21982;49.804;24.072;2023-11-21T09:47:09;96552.59;;;9.14;74.51
35878;BME280;21982;49.804;24.072;2023-11-21T09:49:37;96528.38;;;8.97;74.70
35878;BME280;21982;49.804;24.072;2023-11-21T09:52:04;96511.44;;;8.85;75.17
35878;BME280;21982;49.804;24.072;2023-11-21T09:54:32;96539.94;;;9.02;74.93
35878;BME280;21982;49.804;24.072;2023-11-21T09:56:59;96466.06;;;8.61;74.73
35878;BME280;21982;49.804;24.072;2023-11-21T09:59:30;96546.72;;;9.18;74.70
35878;BME280;21982;49.804;24.072;2023-11-21T10:01:56;96548.53;;;9.18;75.00
35878;BME280;21982;49.804;24.072;2023-11-21T10:04:23;96510.25;;;8.87;74.98
35878;BME280;21982;49.804;24.072;2023-11-21T10:06:50;96556.06;;;9.21;75.01
35878;BME280;21982;49.804;24.072;2023-11-21T10:09:15;96551.78;;;9.13;74.68
35878;BME280;21982;49.804;24.072;2023-11-21T10:11:41;96567.78;;;9.05;74.84
35878;BME280;21982;49.804;24.072;2023-11-21T10:14:12;96559.28;;;9.10;74.62
35878;BME280;21982;49.804;24.072;2023-11-21T10:16:41;96505.06;;;8.66;75.33
35878;BME280;21982;49.804;24.072;2023-11-21T10:19:09;96438.69;;;8.28;74.58
35878;BME280;21982;49.804;24.072;2023-11-21T10:21:36;96493.44;;;8.54;75.45
35878;BME280;21982;49.804;24.072;2023-11-21T10:24:03;96541.13;;;8.93;75.38
35878;BME280;21982;49.804;24.072;2023-11-21T10:26:29;96556.22;;;9.06;75.28
35878;BME280;21982;49.804;24.072;2023-11-21T10:29:01;96553.81;;;9.18;74.81
35878;BME280;21982;49.804;24.072;2023-11-21T10:31:29;96546.66;;;9.05;75.29
35878;BME280;21982;49.804;24.072;2023-11-21T10:34:16;96554.84;;;9.17;74.67
35878;BME280;21982;49.804;24.072;2023-11-21T10:36:41;96556.25;;;9.13;75.44
35878;BME280;21982;49.804;24.072;2023-11-21T10:39:07;96499.88;;;8.86;75.31
35878;BME280;21982;49.804;24.072;2023-11-21T10:41:32;96549.16;;;9.20;75.68
35878;BME280;21982;49.804;24.072;2023-11-21T10:43:58;96550.44;;;9.30;74.92
35878;BME280;21982;49.804;24.072;2023-11-21T10:46:23;96512.59;;;9.17;75.04
35878;BME280;21982;49.804;24.072;2023-11-21T10:48:54;96545.59;;;9.47;75.00
35878;BME280;21982;49.804;24.072;2023-11-21T10:51:22;96546.00;;;9.51;74.94
35878;BME280;21982;49.804;24.072;2023-11-21T10:53:52;96538.13;;;9.64;75.08
35878;BME280;21982;49.804;24.072;2023-11-21T10:56:18;96533.84;;;9.76;75.03
35878;BME280;21982;49.804;24.072;2023-11-21T10:58:45;96430.50;;;9.18;74.92
35878;BME280;21982;49.804;24.072;2023-11-21T11:01:11;96515.16;;;9.84;74.83
35878;BME280;21982;49.804;24.072;2023-11-21T11:03:39;96411.84;;;9.33;74.18
35878;BME280;21982;49.804;24.072;2023-11-21T11:06:05;96478.53;;;9.74;74.44
35878;BME280;21982;49.804;24.072;2023-11-21T11:08:39;96534.69;;;10.09;74.41
35878;BME280;21982;49.804;24.072;2023-11-21T11:11:09;96537.34;;;10.16;74.00
35878;BME280;21982;49.804;24.072;2023-11-21T11:13:35;96473.66;;;9.78;74.41
35878;BME280;21982;49.804;24.072;2023-11-21T11:16:03;96524.31;;;10.15;74.13
35878;BME280;21982;49.804;24.072;2023-11-21T11:18:32;96491.56;;;9.89;74.10
35878;BME280;21982;49.804;24.072;2023-11-21T11:24:20;96541.22;;;10.27;73.78
35878;BME280;21982;49.804;24.072;2023-11-21T11:27:15;96492.38;;;9.90;73.47
35878;BME280;21982;49.804;24.072;2023-11-21T11:35:21;96545.50;;;10.21;73.73
35878;BME280;21982;49.804;24.072;2023-11-21T11:37:49;96504.16;;;9.81;73.54
35878;BME280;21982;49.804;24.072;2023-11-21T11:40:14;96425.66;;;9.35;74.01
35878;BME280;21982;49.804;24.072;2023-11-21T11:42:56;96547.53;;;10.19;73.14
35878;BME280;21982;49.804;24.072;2023-11-21T11:45:22;96502.94;;;9.90;73.63
35878;BME280;21982;49.804;24.072;2023-11-21T11:47:48;96545.25;;;10.09;73.49
35878;BME280;21982;49.804;24.072;2023-11-21T11:50:13;96364.84;;;8.89;73.53
35878;BME280;21982;49.804;24.072;2023-11-21T11:52:52;96542.22;;;10.13;72.82
35878;BME280;21982;49.804;24.072;2023-11-21T11:55:23;96522.50;;;9.95;73.60
35878;BME280;21982;49.804;24.072;2023-11-21T11:57:52;96445.97;;;9.41;73.34
35878;BME280;21982;49.804;24.072;2023-11-21T12:00:22;96435.19;;;9.43;73.40
35878;BME280;21982;49.804;24.072;2023-11-21T12:03:01;96543.03;;;10.13;73.25
35878;BME280;21982;49.804;24.072;2023-11-21T12:05:31;96552.38;;;10.16;73.20
35878;BME280;21982;49.804;24.072;2023-11-21T12:08:11;96551.78;;;10.14;73.13
35878;BME280;21982;49.804;24.072;2023-11-21T12:10:38;96542.81;;;10.15;73.29
35878;BME280;21982;49.804;24.072;2023-11-21T12:13:09;96497.66;;;9.83;72.92
35878;BME280;21982;49.804;24.072;2023-11-21T12:15:36;96522.06;;;9.85;73.29
35878;BME280;21982;49.804;24.072;2023-11-21T12:18:02;96474.06;;;9.55;72.97
35878;BME280;21982;49.804;24.072;2023-11-21T12:20:28;96415.06;;;9.15;73.26
35878;BME280;21982;49.804;24.072;2023-11-21T12:22:55;96456.56;;;9.48;73.29
35878;BME280;21982;49.804;24.072;2023-11-21T12:25:26;96540.56;;;10.05;72.87
35878;BME280;21982;49.804;24.072;2023-11-21T12:27:55;96546.50;;;10.00;73.22
35878;BME280;21982;49.804;24.072;2023-11-21T12:30:22;96546.09;;;10.03;73.46
35878;BME280;21982;49.804;24.072;2023-11-21T12:32:53;96437.44;;;9.32;72.93
35878;BME280;21982;49.804;24.072;2023-11-21T12:35:20;96459.19;;;9.48;73.26
35878;BME280;21982;49.804;24.072;2023-11-21T12:37:46;96546.91;;;9.97;73.23
35878;BME280;21982;49.804;24.072;2023-11-21T12:40:15;96538.97;;;10.04;73.29
35878;BME280;21982;49.804;24.072;2023-11-21T12:42:42;96342.06;;;8.74;73.73
35878;BME280;21982;49.804;24.072;2023-11-21T12:45:08;96543.25;;;9.98;73.65
35878;BME280;21982;49.804;24.072;2023-11-21T12:47:35;96544.47;;;9.96;73.67
35878;BME280;21982;49.804;24.072;2023-11-21T12:50:02;96411.00;;;9.19;73.77
35878;BME280;21982;49.804;24.072;2023-11-21T12:52:28;96537.94;;;9.98;73.66
35878;BME280;21982;49.804;24.072;2023-11-21T12:54:53;96395.50;;;9.03;73.59
35878;BME280;21982;49.804;24.072;2023-11-21T12:57:19;96544.66;;;9.94;74.01
35878;BME280;21982;49.804;24.072;2023-11-21T12:59:45;96542.63;;;9.90;74.12
35878;BME280;21982;49.804;24.072;2023-11-21T13:02:12;96516.34;;;9.62;73.89
35878;BME280;21982;49.804;24.072;2023-11-21T13:04:40;96368.59;;;8.53;73.80
35878;BME280;21982;49.804;24.072;2023-11-21T13:07:06;96459.31;;;9.00;74.22
35878;BME280;21982;49.804;24.072;2023-11-21T13:09:39;96379.13;;;8.47;74.56
35878;BME280;21982;49.804;24.072;2023-11-21T13:12:06;96457.69;;;8.99;74.54
35878;BME280;21982;49.804;24.072;2023-11-21T13:14:33;96550.91;;;9.54;74.69